createdAt,value
2023-02-08T00:00:40.089Z,0.70
2023-02-08T00:03:07.285Z,0.40
2023-02-08T00:05:34.291Z,0.30
2023-02-08T00:08:01.425Z,0.20
2023-02-08T00:10:28.387Z,0.00
2023-02-08T00:12:55.455Z,-0.10
2023-02-08T00:15:22.483Z,0.10
2023-02-08T00:17:49.518Z,0.30
2023-02-08T00:20:16.655Z,0.50
2023-02-08T00:22:43.811Z,0.60
2023-02-08T00:25:10.808Z,0.70
2023-02-08T00:27:37.766Z,0.70
2023-02-08T00:30:04.720Z,0.70
2023-02-08T00:32:31.453Z,0.50
2023-02-08T00:34:58.483Z,0.30
2023-02-08T00:37:25.480Z,0.10
2023-02-08T00:39:52.557Z,0.00
2023-02-08T00:42:19.573Z,-0.10
2023-02-08T00:44:46.220Z,-0.20
2023-02-08T00:47:12.876Z,-0.30
2023-02-08T00:49:39.893Z,0.00
2023-02-08T00:52:06.577Z,0.00
2023-02-08T00:54:33.567Z,0.10
2023-02-08T00:57:00.502Z,0.00
2023-02-08T00:59:27.855Z,0.00
2023-02-08T01:01:54.789Z,0.10
2023-02-08T01:04:21.797Z,0.20
2023-02-08T01:06:48.828Z,0.40
2023-02-08T01:09:15.611Z,0.40
2023-02-08T01:11:42.565Z,0.50
2023-02-08T01:14:09.613Z,0.40
2023-02-08T01:16:36.663Z,0.20
2023-02-08T01:19:04.442Z,0.30
2023-02-08T01:21:35.639Z,0.20
2023-02-08T01:24:02.857Z,-0.20
2023-02-08T01:26:29.875Z,-0.30
2023-02-08T01:28:57.042Z,-0.20
2023-02-08T01:31:25.256Z,0.10
2023-02-08T01:33:51.980Z,0.20
2023-02-08T01:36:19.078Z,0.30
2023-02-08T01:38:46.217Z,-0.30
2023-02-08T01:41:17.406Z,-0.50
2023-02-08T01:44:04.642Z,-0.70
2023-02-08T01:46:32.494Z,-0.40
2023-02-08T01:49:02.071Z,-0.10
2023-02-08T01:51:31.337Z,0.00
2023-02-08T01:54:00.746Z,-0.20
2023-02-08T01:56:31.532Z,-0.50
2023-02-08T01:59:00.006Z,-0.50
2023-02-08T02:01:27.497Z,-0.40
2023-02-08T02:03:54.662Z,-0.40
2023-02-08T02:06:28.265Z,-0.30
2023-02-08T02:09:15.244Z,-0.20
2023-02-08T02:11:43.025Z,-0.10
2023-02-08T02:14:10.563Z,-0.40
2023-02-08T02:16:37.596Z,-0.40
2023-02-08T02:19:09.032Z,-0.10
2023-02-08T02:21:54.423Z,0.00
2023-02-08T02:24:30.514Z,-0.40
2023-02-08T02:27:12.384Z,-0.50
2023-02-08T02:29:57.958Z,-0.40
2023-02-08T02:32:43.674Z,-0.30
2023-02-08T02:35:13.194Z,-0.40
2023-02-08T02:37:45.998Z,-0.70
2023-02-08T02:40:24.873Z,-0.90
2023-02-08T02:43:10.195Z,-0.70
2023-02-08T02:45:45.188Z,-0.50
2023-02-08T02:48:18.015Z,-0.40
2023-02-08T02:50:48.251Z,-0.30
2023-02-08T02:53:27.888Z,-0.30
2023-02-08T02:55:58.792Z,-0.10
2023-02-08T02:58:26.739Z,0.00
2023-02-08T03:00:57.480Z,0.00
2023-02-08T03:03:26.047Z,-0.10
2023-02-08T03:05:54.363Z,-0.30
2023-02-08T03:08:39.024Z,-0.50
2023-02-08T03:11:18.736Z,-0.30
2023-02-08T03:13:45.431Z,-0.10
2023-02-08T03:16:15.332Z,-0.40
2023-02-08T03:18:50.639Z,-0.40
2023-02-08T03:21:20.072Z,-0.40
2023-02-08T03:23:50.011Z,-0.40
2023-02-08T03:26:16.704Z,-0.50
2023-02-08T03:29:04.326Z,-0.60
2023-02-08T03:31:31.418Z,-0.50
2023-02-08T03:34:02.158Z,-0.70
2023-02-08T03:36:34.689Z,-0.90
2023-02-08T03:39:03.383Z,-0.70
2023-02-08T03:41:34.812Z,-0.90
2023-02-08T03:44:03.736Z,-0.60
2023-02-08T03:46:35.243Z,-0.60
2023-02-08T03:49:08.011Z,-1.00
2023-02-08T03:51:35.402Z,-1.50
2023-02-08T03:54:04.707Z,-1.70
2023-02-08T03:56:34.898Z,-1.90
2023-02-08T03:59:04.405Z,-1.90
2023-02-08T04:01:36.764Z,-1.60
2023-02-08T04:04:03.858Z,-1.70
2023-02-08T04:06:30.847Z,-1.60
2023-02-08T04:08:57.501Z,-1.10
2023-02-08T04:11:24.156Z,-1.10
2023-02-08T04:13:50.918Z,-1.30
2023-02-08T04:16:17.826Z,-1.30
2023-02-08T04:18:44.541Z,-1.30
2023-02-08T04:21:11.318Z,-1.40
2023-02-08T04:23:38.172Z,-1.20
2023-02-08T04:26:07.549Z,-1.30
2023-02-08T04:28:34.554Z,-1.20
2023-02-08T04:31:01.516Z,-1.00
2023-02-08T04:33:28.921Z,-1.00
2023-02-08T04:35:55.916Z,-1.00
2023-02-08T04:38:22.914Z,-1.30
2023-02-08T04:40:49.535Z,-1.40
2023-02-08T04:43:16.208Z,-1.30
2023-02-08T04:45:43.234Z,-1.20
2023-02-08T04:48:11.818Z,-1.10
2023-02-08T04:50:39.373Z,-1.00
2023-02-08T04:53:06.746Z,-1.10
2023-02-08T04:55:33.651Z,-1.20
2023-02-08T04:58:00.528Z,-1.20
2023-02-08T05:00:27.442Z,-1.10
2023-02-08T05:02:54.811Z,-1.00
2023-02-08T05:05:21.674Z,-1.00
2023-02-08T05:07:48.912Z,-0.90
2023-02-08T05:10:15.888Z,-1.00
2023-02-08T05:12:43.664Z,-1.00
2023-02-08T05:15:11.545Z,-1.00
2023-02-08T05:17:38.882Z,-1.00
2023-02-08T05:20:06.218Z,-1.10
2023-02-08T05:22:33.483Z,-1.00
2023-02-08T05:25:00.540Z,-1.00
2023-02-08T05:27:27.599Z,-0.90
2023-02-08T05:29:54.241Z,-1.00
2023-02-08T05:32:21.234Z,-1.00
2023-02-08T05:34:47.906Z,-0.90
2023-02-08T05:37:14.971Z,-1.00
2023-02-08T05:39:41.964Z,-1.00
2023-02-08T05:42:08.631Z,-0.90
2023-02-08T05:44:35.672Z,-0.80
2023-02-08T05:47:03.959Z,-0.80
2023-02-08T05:49:31.021Z,-0.70
2023-02-08T05:51:58.015Z,-1.00
2023-02-08T05:54:25.913Z,-1.50
2023-02-08T05:56:53.055Z,-1.30
2023-02-08T05:59:19.670Z,-1.50
2023-02-08T06:01:46.729Z,-1.70
2023-02-08T06:04:13.727Z,-1.90
2023-02-08T06:06:40.736Z,-2.00
2023-02-08T06:09:11.968Z,-1.90
2023-02-08T06:11:41.261Z,-1.70
2023-02-08T06:14:10.364Z,-1.50
2023-02-08T06:16:37.230Z,-1.20
2023-02-08T06:19:04.324Z,-1.10
2023-02-08T06:21:31.326Z,-1.10
2023-02-08T06:23:58.314Z,-1.00
2023-02-08T06:26:25.312Z,-1.30
2023-02-08T06:28:52.044Z,-1.40
2023-02-08T06:31:19.012Z,-1.20
2023-02-08T06:33:46.035Z,-1.10
2023-02-08T06:36:12.662Z,-1.30
2023-02-08T06:38:39.364Z,-1.60
2023-02-08T06:41:06.363Z,-1.80
2023-02-08T06:43:33.284Z,-1.90
2023-02-08T06:46:00.205Z,-1.90
2023-02-08T06:48:27.092Z,-1.70
2023-02-08T06:50:55.122Z,-1.60
2023-02-08T06:53:22.029Z,-1.60
2023-02-08T06:55:49.378Z,-1.60
2023-02-08T06:58:16.255Z,-1.60
2023-02-08T07:00:45.322Z,-1.60
2023-02-08T07:03:15.058Z,-1.50
2023-02-08T07:05:55.439Z,-1.40
2023-02-08T07:08:30.718Z,-1.40
2023-02-08T07:10:57.608Z,-1.40
2023-02-08T07:13:25.431Z,-1.60
2023-02-08T07:15:53.302Z,-1.60
2023-02-08T07:18:19.978Z,-1.40
2023-02-08T07:20:49.900Z,-1.30
2023-02-08T07:23:17.755Z,-1.10
2023-02-08T07:25:55.989Z,-1.20
2023-02-08T07:28:22.970Z,-1.20
2023-02-08T07:30:49.647Z,-1.30
2023-02-08T07:33:22.572Z,-1.30
2023-02-08T07:35:51.474Z,-1.10
2023-02-08T07:38:20.636Z,-1.00
2023-02-08T07:40:49.670Z,-1.00
2023-02-08T07:43:16.721Z,-0.90
2023-02-08T07:45:49.446Z,-0.80
2023-02-08T07:48:18.210Z,-0.80
2023-02-08T07:50:45.996Z,-0.80
2023-02-08T07:53:13.873Z,-0.80
2023-02-08T07:55:40.918Z,-0.90
2023-02-08T07:58:07.964Z,-0.90
2023-02-08T08:00:34.607Z,-1.00
2023-02-08T08:03:04.470Z,-1.10
2023-02-08T08:05:31.225Z,-0.90
2023-02-08T08:07:59.039Z,-0.70
2023-02-08T08:10:26.108Z,-0.60
2023-02-08T08:12:53.850Z,-0.50
2023-02-08T08:15:21.772Z,-0.40
2023-02-08T08:17:49.697Z,-0.30
2023-02-08T08:20:16.790Z,-0.20
2023-02-08T08:22:49.231Z,-0.20
2023-02-08T08:25:17.053Z,-0.30
2023-02-08T08:27:44.110Z,-0.50
2023-02-08T08:30:12.081Z,-0.40
2023-02-08T08:32:39.158Z,-0.20
2023-02-08T08:35:06.732Z,-0.20
2023-02-08T08:37:37.922Z,-0.20
2023-02-08T08:40:06.644Z,-0.10
2023-02-08T08:42:39.797Z,-0.10
2023-02-08T08:45:08.311Z,0.00
2023-02-08T08:47:35.202Z,0.10
2023-02-08T08:50:05.187Z,0.10
2023-02-08T08:52:39.703Z,0.20
2023-02-08T08:55:07.869Z,0.30
2023-02-08T08:57:34.655Z,0.40
2023-02-08T09:00:07.299Z,0.50
2023-02-08T09:02:34.992Z,0.70
2023-02-08T09:05:04.136Z,0.90
2023-02-08T09:07:32.899Z,0.90
2023-02-08T09:10:00.722Z,1.10
2023-02-08T09:12:27.955Z,1.20
2023-02-08T09:14:56.895Z,1.40
2023-02-08T09:17:25.959Z,1.60
2023-02-08T09:19:53.107Z,1.80
2023-02-08T09:22:23.042Z,1.90
2023-02-08T09:24:49.914Z,2.00
2023-02-08T09:27:18.887Z,2.10
2023-02-08T09:29:49.759Z,2.30
2023-02-08T09:32:23.035Z,2.30
2023-02-08T09:34:50.056Z,2.40
2023-02-08T09:37:18.050Z,2.40
2023-02-08T09:39:50.337Z,2.50
2023-02-08T09:42:34.508Z,2.50
2023-02-08T09:45:20.294Z,2.80
2023-02-08T09:48:22.860Z,3.20
2023-02-08T09:50:55.422Z,3.30
2023-02-08T09:53:26.225Z,3.40
2023-02-08T09:55:57.744Z,3.50
2023-02-08T09:58:35.002Z,3.50
2023-02-08T10:01:03.583Z,3.70
2023-02-08T10:03:35.502Z,3.90
2023-02-08T10:06:06.711Z,4.00
2023-02-08T10:08:35.792Z,4.20
2023-02-08T10:11:09.933Z,4.50
2023-02-08T10:13:56.134Z,6.10
2023-02-08T10:16:45.485Z,8.30
2023-02-08T10:19:25.534Z,10.40
2023-02-08T10:22:04.812Z,11.80
2023-02-08T10:24:41.324Z,13.30
2023-02-08T10:27:07.929Z,14.30
2023-02-08T10:29:34.571Z,15.10
2023-02-08T10:32:20.001Z,16.40
2023-02-08T10:34:56.713Z,17.10
2023-02-08T10:37:34.910Z,17.60
2023-02-08T10:40:28.293Z,17.60
2023-02-08T10:43:13.743Z,17.50
2023-02-08T10:45:50.496Z,19.00
2023-02-08T10:48:34.995Z,20.00
2023-02-08T10:51:10.674Z,18.90
2023-02-08T10:53:37.695Z,18.10
2023-02-08T10:56:04.792Z,19.40
2023-02-08T10:58:40.797Z,20.40
2023-02-08T11:01:08.956Z,19.60
2023-02-08T11:03:57.736Z,20.10
2023-02-08T11:06:28.570Z,20.50
2023-02-08T11:08:56.314Z,21.70
2023-02-08T11:11:24.696Z,22.60
2023-02-08T11:13:51.456Z,21.60
2023-02-08T11:16:26.274Z,21.40
2023-02-08T11:19:05.376Z,22.00
2023-02-08T11:21:37.194Z,20.60
2023-02-08T11:24:26.980Z,20.70
2023-02-08T11:26:56.480Z,19.50
2023-02-08T11:29:25.694Z,19.40
2023-02-08T11:32:14.417Z,20.80
2023-02-08T11:34:46.931Z,19.40
2023-02-08T11:37:28.447Z,19.10
2023-02-08T11:40:07.978Z,19.00
2023-02-08T11:42:44.118Z,19.20
2023-02-08T11:45:31.111Z,19.20
2023-02-08T11:47:59.316Z,19.50
2023-02-08T11:50:34.564Z,18.40
2023-02-08T11:53:32.231Z,18.60
2023-02-08T11:56:06.785Z,18.90
2023-02-08T11:58:39.627Z,19.90
2023-02-08T12:01:16.787Z,18.90
2023-02-08T12:03:50.659Z,19.40
2023-02-08T12:06:19.533Z,18.90
2023-02-08T12:08:49.473Z,18.60
2023-02-08T12:11:28.408Z,17.70
2023-02-08T12:14:15.764Z,17.40
2023-02-08T12:17:04.585Z,16.80
2023-02-08T12:19:52.769Z,18.00
2023-02-08T12:22:29.670Z,18.10
2023-02-08T12:25:15.871Z,18.40
2023-02-08T12:27:49.815Z,18.50
2023-02-08T12:30:29.182Z,18.40
2023-02-08T12:33:20.270Z,19.00
2023-02-08T12:36:03.048Z,19.10
2023-02-08T12:39:17.900Z,19.10
2023-02-08T12:41:45.956Z,19.50
2023-02-08T12:44:34.447Z,19.90
2023-02-08T12:47:04.527Z,18.80
2023-02-08T12:49:43.374Z,19.40
2023-02-08T12:52:29.219Z,19.50
2023-02-08T12:55:17.297Z,18.80
2023-02-08T12:57:46.531Z,18.20
2023-02-08T13:00:22.890Z,18.60
2023-02-08T13:02:57.279Z,18.60
2023-02-08T13:05:31.530Z,18.20
2023-02-08T13:08:24.706Z,17.40
2023-02-08T13:11:18.830Z,17.70
2023-02-08T13:14:18.316Z,18.60
2023-02-08T13:16:46.902Z,18.20
2023-02-08T13:19:28.866Z,18.00
2023-02-08T13:21:56.097Z,17.50
2023-02-08T13:24:27.183Z,18.00
2023-02-08T13:26:56.247Z,18.50
2023-02-08T13:29:28.390Z,17.60
2023-02-08T13:32:01.466Z,18.40
2023-02-08T13:34:31.523Z,18.50
2023-02-08T13:37:00.704Z,19.40
2023-02-08T13:39:32.208Z,19.20
2023-02-08T13:41:58.994Z,18.80
2023-02-08T13:44:46.240Z,18.70
2023-02-08T13:47:34.235Z,17.90
2023-02-08T13:50:04.934Z,17.00
2023-02-08T13:52:46.839Z,16.80
2023-02-08T13:55:33.246Z,17.00
2023-02-08T13:58:03.977Z,16.30
2023-02-08T14:00:30.671Z,16.60
2023-02-08T14:03:01.531Z,16.50
2023-02-08T14:05:43.388Z,17.10
2023-02-08T14:08:19.599Z,17.20
2023-02-08T14:11:22.030Z,16.60
2023-02-08T14:14:00.478Z,16.20
2023-02-08T14:16:29.994Z,16.70
2023-02-08T14:19:00.257Z,17.10
2023-02-08T14:21:28.950Z,16.90
2023-02-08T14:24:05.024Z,16.30
2023-02-08T14:26:32.220Z,16.20
2023-02-08T14:29:01.460Z,15.90
2023-02-08T14:31:40.983Z,15.60
2023-02-08T14:34:20.933Z,15.00
2023-02-08T14:36:58.346Z,15.10
2023-02-08T14:39:29.597Z,14.40
2023-02-08T14:42:01.145Z,13.70
2023-02-08T14:44:48.799Z,12.70
2023-02-08T14:47:25.922Z,11.40
2023-02-08T14:49:58.572Z,10.60
2023-02-08T14:52:25.527Z,10.40
2023-02-08T14:55:13.541Z,10.00
2023-02-08T14:57:43.574Z,9.40
2023-02-08T15:00:19.646Z,9.20
2023-02-08T15:02:47.166Z,9.20
2023-02-08T15:05:42.027Z,8.90
2023-02-08T15:08:11.083Z,8.80
2023-02-08T15:10:41.286Z,8.70
2023-02-08T15:13:17.782Z,8.70
2023-02-08T15:15:45.967Z,8.70
2023-02-08T15:18:20.561Z,8.60
2023-02-08T15:20:57.513Z,8.50
2023-02-08T15:23:24.506Z,8.30
2023-02-08T15:25:56.896Z,8.10
2023-02-08T15:28:28.837Z,8.00
2023-02-08T15:30:58.698Z,8.10
2023-02-08T15:33:27.361Z,7.90
2023-02-08T15:35:59.560Z,7.90
2023-02-08T15:38:26.650Z,7.80
2023-02-08T15:41:19.845Z,7.70
2023-02-08T15:43:47.201Z,7.60
2023-02-08T15:46:19.030Z,7.60
2023-02-08T15:48:48.872Z,7.60
2023-02-08T15:51:17.353Z,7.50
2023-02-08T15:53:45.755Z,7.50
2023-02-08T15:56:24.042Z,7.50
2023-02-08T15:59:01.991Z,7.40
2023-02-08T16:01:29.664Z,7.40
2023-02-08T16:03:57.572Z,7.40
2023-02-08T16:06:26.477Z,7.70
2023-02-08T16:08:54.759Z,7.80
2023-02-08T16:11:23.817Z,7.60
2023-02-08T16:13:52.932Z,7.50
2023-02-08T16:16:47.349Z,7.40
2023-02-08T16:19:30.601Z,7.30
2023-02-08T16:22:17.657Z,7.20
2023-02-08T16:24:46.908Z,7.20
2023-02-08T16:27:24.156Z,7.10
2023-02-08T16:29:51.085Z,7.10
2023-02-08T16:32:38.809Z,7.10
2023-02-08T16:35:13.002Z,7.00
2023-02-08T16:37:39.976Z,6.80
2023-02-08T16:40:18.500Z,6.80
2023-02-08T16:42:45.484Z,6.90
2023-02-08T16:45:13.871Z,6.70
2023-02-08T16:47:42.275Z,6.60
2023-02-08T16:50:13.028Z,6.40
2023-02-08T16:52:40.486Z,6.40
2023-02-08T16:55:07.707Z,6.40
2023-02-08T16:57:53.530Z,6.20
2023-02-08T17:00:28.131Z,6.10
2023-02-08T17:02:55.633Z,6.00
2023-02-08T17:05:24.305Z,6.10
2023-02-08T17:07:51.484Z,6.00
2023-02-08T17:10:20.757Z,5.90
2023-02-08T17:12:47.788Z,5.90
2023-02-08T17:15:14.934Z,5.90
2023-02-08T17:17:41.932Z,5.90
2023-02-08T17:20:28.636Z,5.80
2023-02-08T17:22:56.458Z,5.80
2023-02-08T17:25:23.548Z,5.60
2023-02-08T17:27:55.243Z,5.50
2023-02-08T17:30:32.027Z,5.40
2023-02-08T17:32:59.035Z,5.30
2023-02-08T17:35:28.424Z,5.30
2023-02-08T17:37:55.892Z,5.20
2023-02-08T17:40:23.791Z,5.20
2023-02-08T17:42:52.126Z,5.20
2023-02-08T17:45:18.981Z,5.10
2023-02-08T17:47:45.918Z,5.00
2023-02-08T17:50:13.849Z,4.90
2023-02-08T17:52:41.018Z,4.90
2023-02-08T17:55:09.560Z,4.90
2023-02-08T17:57:37.594Z,4.80
2023-02-08T18:00:06.131Z,4.70
2023-02-08T18:02:33.107Z,4.70
2023-02-08T18:05:00.026Z,4.70
2023-02-08T18:07:27.291Z,4.80
2023-02-08T18:09:54.084Z,4.90
2023-02-08T18:12:20.765Z,5.00
2023-02-08T18:14:47.981Z,5.20
2023-02-08T18:17:14.829Z,5.20
2023-02-08T18:19:41.592Z,5.30
2023-02-08T18:22:08.898Z,5.50
2023-02-08T18:24:35.634Z,5.40
2023-02-08T18:27:02.621Z,5.40
2023-02-08T18:29:30.046Z,5.50
2023-02-08T18:31:56.816Z,5.50
2023-02-08T18:34:23.779Z,5.30
2023-02-08T18:36:50.481Z,5.30
2023-02-08T18:39:23.001Z,5.30
2023-02-08T18:41:50.780Z,5.20
2023-02-08T18:44:18.250Z,5.10
2023-02-08T18:46:47.744Z,5.00
2023-02-08T18:49:16.071Z,4.90
2023-02-08T18:51:44.829Z,4.90
2023-02-08T18:54:13.686Z,4.80
2023-02-08T18:56:41.518Z,4.90
2023-02-08T18:59:08.866Z,5.00
2023-02-08T19:01:37.318Z,4.80
2023-02-08T19:04:04.758Z,4.70
2023-02-08T19:06:34.559Z,4.70
2023-02-08T19:09:03.031Z,4.70
2023-02-08T19:11:31.754Z,4.60
2023-02-08T19:14:00.502Z,4.80
2023-02-08T19:16:29.004Z,4.80
2023-02-08T19:18:56.528Z,4.70
2023-02-08T19:21:23.783Z,4.70
2023-02-08T19:23:51.927Z,4.60
2023-02-08T19:26:23.061Z,4.50
2023-02-08T19:28:50.475Z,4.60
2023-02-08T19:31:18.872Z,4.50
2023-02-08T19:33:46.665Z,4.30
2023-02-08T19:36:14.761Z,4.20
2023-02-08T19:38:41.834Z,4.40
2023-02-08T19:41:10.054Z,4.50
2023-02-08T19:43:36.792Z,4.50
2023-02-08T19:46:08.268Z,4.60
2023-02-08T19:48:34.978Z,4.50
2023-02-08T19:51:02.012Z,4.50
2023-02-08T19:53:29.230Z,4.40
2023-02-08T19:56:00.022Z,4.30
2023-02-08T19:58:27.421Z,4.00
2023-02-08T20:00:54.352Z,3.80
2023-02-08T20:03:22.371Z,3.50
2023-02-08T20:05:49.885Z,3.40
2023-02-08T20:08:17.488Z,3.20
2023-02-08T20:10:45.478Z,3.10
2023-02-08T20:13:13.070Z,3.30
2023-02-08T20:15:40.850Z,3.30
2023-02-08T20:18:08.424Z,3.30
2023-02-08T20:20:35.505Z,3.00
2023-02-08T20:23:07.007Z,2.90
2023-02-08T20:25:36.373Z,2.80
2023-02-08T20:28:03.170Z,2.80
2023-02-08T20:30:30.768Z,2.90
2023-02-08T20:32:59.200Z,3.00
2023-02-08T20:35:26.213Z,2.80
2023-02-08T20:37:53.171Z,2.70
2023-02-08T20:40:20.177Z,2.60
2023-02-08T20:42:46.879Z,2.70
2023-02-08T20:45:15.339Z,2.60
2023-02-08T20:47:46.566Z,2.40
2023-02-08T20:50:19.209Z,2.30
2023-02-08T20:52:46.869Z,2.30
2023-02-08T20:55:13.964Z,2.50
2023-02-08T20:57:41.004Z,2.80
2023-02-08T21:00:08.231Z,2.90
2023-02-08T21:02:35.135Z,3.20
2023-02-08T21:05:02.141Z,3.40
2023-02-08T21:07:29.176Z,3.30
2023-02-08T21:09:55.830Z,3.50
2023-02-08T21:12:22.848Z,3.70
2023-02-08T21:14:49.592Z,3.70
2023-02-08T21:17:16.542Z,3.60
2023-02-08T21:19:43.322Z,3.60
2023-02-08T21:22:10.456Z,3.60
2023-02-08T21:24:37.328Z,3.60
2023-02-08T21:27:04.430Z,3.50
2023-02-08T21:29:32.591Z,3.20
2023-02-08T21:31:59.525Z,3.10
2023-02-08T21:34:26.262Z,2.70
2023-02-08T21:36:52.997Z,2.50
2023-02-08T21:39:20.088Z,2.40
2023-02-08T21:41:48.226Z,2.60
2023-02-08T21:44:15.355Z,2.60
2023-02-08T21:46:42.366Z,2.70
2023-02-08T21:49:28.184Z,2.90
2023-02-08T21:52:13.141Z,3.10
2023-02-08T21:54:44.174Z,2.90
2023-02-08T21:57:18.602Z,2.80
2023-02-08T21:59:46.378Z,2.80
2023-02-08T22:02:21.526Z,2.80
2023-02-08T22:05:06.888Z,2.80
2023-02-08T22:07:41.389Z,2.90
2023-02-08T22:10:09.183Z,3.00
2023-02-08T22:12:36.105Z,2.90
2023-02-08T22:15:03.092Z,2.80
2023-02-08T22:17:30.143Z,2.50
2023-02-08T22:19:57.134Z,2.40
2023-02-08T22:22:23.810Z,2.60
2023-02-08T22:24:50.819Z,2.80
2023-02-08T22:27:17.460Z,3.00
2023-02-08T22:29:44.147Z,2.80
2023-02-08T22:32:12.545Z,2.80
2023-02-08T22:34:39.452Z,3.00
2023-02-08T22:37:06.574Z,3.00
2023-02-08T22:39:35.699Z,2.90
2023-02-08T22:42:08.101Z,2.90
2023-02-08T22:44:35.679Z,3.00
2023-02-08T22:47:02.793Z,3.00
2023-02-08T22:49:29.615Z,3.00
2023-02-08T22:51:56.555Z,2.90
2023-02-08T22:54:23.602Z,3.00
2023-02-08T22:56:50.317Z,2.80
2023-02-08T22:59:17.404Z,2.80
2023-02-08T23:01:44.689Z,2.80
2023-02-08T23:04:11.414Z,2.80
2023-02-08T23:06:38.422Z,2.80
2023-02-08T23:09:05.772Z,2.70
2023-02-08T23:11:32.804Z,2.90
2023-02-08T23:13:59.702Z,2.90
2023-02-08T23:16:26.682Z,2.70
2023-02-08T23:18:53.684Z,2.70
2023-02-08T23:21:21.406Z,2.80
2023-02-08T23:23:48.509Z,2.80
2023-02-08T23:26:16.465Z,2.70
2023-02-08T23:28:43.719Z,2.70
2023-02-08T23:31:11.471Z,2.70
2023-02-08T23:33:38.547Z,2.70
2023-02-08T23:36:09.131Z,2.70
2023-02-08T23:38:35.986Z,2.70
2023-02-08T23:41:04.276Z,2.60
2023-02-08T23:43:31.516Z,2.60
2023-02-08T23:45:58.235Z,2.50
2023-02-08T23:48:25.256Z,2.50
2023-02-08T23:51:01.861Z,2.40
2023-02-08T23:53:32.386Z,2.50
2023-02-08T23:56:05.222Z,2.50
2023-02-08T23:58:32.274Z,2.60
